Terminal Aerodrome Forecast
Issued by NWS

Home | Current Version | Previous Version | Graphics & Text | Print | Product List | Glossary On
Versions: 1 2 3 4 5 6 7 8 9 10 11 12 13 14 15 16 17
000
FTUS43 KICT 261517 AAB
TAFRSL
TAF AMD
KRSL 261517Z 2615/2712 27010KT P6SM SKC
     FM261700 30012KT P6SM SKC
     FM261900 33015KT P6SM SKC
     FM270000 33007KT P6SM SKC=

USA.gov is the U.S. government's official web portal to all federal, state and local government web resources and services.